Bewolking Meer informatie Parkstad Weather Satellite


Neerslagradar Meer informatie Parkstad Rain Snow Radar


Onweersbuien Meer informatie Parkstad Lighntning


24/7 Weercamera Meer informatie Parkstad Weathercam


Natuurbrandrisico
CBI








Het weer levert geen direct gevaar op in Parkstad.    Er zijn geen waarschuwingen afgegeven voor Parkstad (045)

METAR rapporten vliegvelden

   
EHAM - Amsterdam
Gewijzigd: 16-01-2022 19:25
Wat regen mogelijk, Motregen, Grotendeels bewolkt  
Wat regen mogelijk, Motregen, Grotendeels bewolkt  
   Wind: Westen 14.8 km/h
Wind: Westen 14.8 km/h
Temperatuur: 7°C
Voelt als: 4°C
Dauwpunt: 6°C
Vochtigheid: 93%
Barometer: 1027 hPa
Satelliet beelden: Grotendeels bewolkt
Zicht: 9 km
Bewolking: Gedeeltelijk bewolkt 335 m,
Grotendeels bewolkt 518 m,
Grotendeels bewolkt 1097 m
EHAM 161825Z 27008KT 9000 -RADZ SCT011 BKN017 BKN036 07/06 Q1027 BECMG BKN030
EBAW - Antwerpen
Gewijzigd: 16-01-2022 19:20
Nevel, Bewolking  
Nevel, Bewolking  
   Wind: ZW 16.7 km/h
Wind: ZW 16.7 km/h
Temperatuur: 5°C
Voelt als: 2°C
Dauwpunt: 4°C
Vochtigheid: 93%
Barometer: 1029 hPa
Satelliet beelden: Bewolking
Zicht: 5 km
Bewolking: Grotendeels bewolkt 152 m,
Bewolking 183 m
EBAW 161820Z 22009KT 4500 BR BKN005 OVC006 05/04 Q1029 NOSIG
EGLL - London
Gewijzigd: 16-01-2022 19:20
Bewolking  
Bewolking  
   Wind: WNW 7.4 km/h
Wind: WNW 7.4 km/h
Temperatuur: 7°C
Voelt als: 6°C
Dauwpunt: 6°C
Vochtigheid: 93%
Barometer: 1031 hPa
Satelliet beelden: Bewolking
Zicht: meer dan 10 km
Bewolking: Grotendeels bewolkt 640 m,
Grotendeels bewolkt 823 m,
Bewolking 1311 m
EGLL 161820Z AUTO 29004KT 9999 BKN021 BKN027 OVC043 07/06 Q1031
ELLX - Luxemburg
Gewijzigd: 16-01-2022 19:20
Nevel, Bewolking  
Nevel, Bewolking  
   Wind: Westen 25.9 km/h
Wind: Westen 25.9 km/h
Temperatuur: -1°C
Voelt als: -7°C
Dauwpunt: -1°C
Vochtigheid: 100%
Barometer: 1029 hPa
Satelliet beelden: Bewolking
Zicht: 5 km
Bewolking: Bewolking 91 m
ELLX 161820Z 26014KT 5000 BR OVC003 M01/M01 Q1029 NOSIG
EDDM - München
Gewijzigd: 16-01-2022 19:20
Bewolking  
Bewolking  
   Wind: WZW 22.2 km/h
Wind: WZW 22.2 km/h
Temperatuur: 2°C
Voelt als: -3°C
Dauwpunt: -2°C
Vochtigheid: 75%
Barometer: 1028 hPa
Satelliet beelden: Bewolking
Zicht: meer dan 10 km
Bewolking: Bewolking 914 m
EDDM 161820Z 25012KT 9999 OVC030 02/M02 Q1028 NOSIG
LFPO - Parijs
Gewijzigd: 16-01-2022 19:30
Nevel, Bewolking  
Nevel, Bewolking  
   Wind: ZZW 11.1 km/h
Wind: ZZW 11.1 km/h
Temperatuur: 3°C
Voelt als: 0°C
Dauwpunt: 3°C
Vochtigheid: 100%
Barometer: 1032 hPa
Satelliet beelden: Bewolking
Zicht: 4 km
Bewolking: Bewolking 91 m
LFPO 161830Z 21006KT 3500 BR OVC003 03/03 Q1032 TEMPO 1200 -RADZ BKN002
EDDL - Düsseldorf
Gewijzigd: 16-01-2022 19:20
Bewolking  
Bewolking  
   Wind: WZW 18.5 km/h
Wind: WZW 18.5 km/h
Temperatuur: 5°C
Voelt als: 1°C
Dauwpunt: 4°C
Vochtigheid: 93%
Barometer: 1027 hPa
Satelliet beelden: Bewolking
Zicht: 7 km
Bewolking: Bewolking 183 m
EDDL 161820Z 24010KT 7000 OVC006 05/04 Q1027 NOSIG
EDDK - Köln/Bonn Duitsland
Gewijzigd: 16-01-2022 19:20
Grotendeels bewolkt  
Grotendeels bewolkt  
   Wind: WZW 13 km/h
Wind: WZW 13 km/h
Temperatuur: 5°C
Voelt als: 2°C
Dauwpunt: 3°C
Vochtigheid: 87%
Barometer: 1028 hPa
Satelliet beelden: Grotendeels bewolkt
Zicht: meer dan 10 km
Bewolking: Grotendeels bewolkt 305 m
EDDK 161820Z 25007KT 9999 BKN010 05/03 Q1028 TEMPO BKN008
TNCA - Oranjestad Aruba
Gewijzigd: 16-01-2022 19:00
Grotendeels bewolkt  
Grotendeels bewolkt  
   Wind: Oosten 35.2 km/h
Wind: Oosten 35.2 km/h
Temperatuur: 29°C
Gevoelstemperatuur: 33°C
Dauwpunt: 23°C
Vochtigheid: 70%
Barometer: 1013 hPa
Satelliet beelden: Grotendeels bewolkt
Zicht: meer dan 10 km
Bewolking: Grotendeels bewolkt 549 m
TNCA 161800Z 08019KT 9999 BKN018 29/23 Q1013 NOSIG
TNCC - Willemstad Curacao
Gewijzigd: 16-01-2022 18:54
Gedeeltelijk bewolkt  
Gedeeltelijk bewolkt  
   Wind: Oosten 20.4 km/h
Wind: Oosten 20.4 km/h
Temperatuur: 29°C
Gevoelstemperatuur: 33°C
Dauwpunt: 24°C
Vochtigheid: 74%
Barometer: 1014 hPa
Satelliet beelden: Gedeeltelijk bewolkt
Zicht: meer dan 10 km
Bewolking: Gedeeltelijk bewolkt 671 m
TNCC 161754Z 08011KT 9999 SCT022 29/24 Q1014 NOSIG=
LEAL - La Nucia Spanje
Gewijzigd: 16-01-2022 19:30
Helder  
Helder  
   Wind: Westen 5.6 km/h
Wind: Westen 5.6 km/h
Temperatuur: 8°C
Voelt als: 7°C
Dauwpunt: 5°C
Vochtigheid: 82%
Barometer: 1031 hPa
Zicht: meer dan 10 km
Bewolking: Helder
LEAL 161830Z 27003KT CAVOK 08/05 Q1031 NOSIG
 

Script ontwikkeld door  Saratoga-weather.org Aangepast voor de template door  Weerstation Leuven

U vindt ons ook hier:

Het Weer Aktueel

WOW Nederland KNMI

Vereniging voor Weerkunde en Klimatologie

UK Met Office Weather Observation Website (WOW)

WeatherCloud

Weather Underground

Awekas

MeteoMap.Cloud

HAMweather, WeatherForYou, PWS Weather

Citizen Weather Observer Program (CWOP)

Apparatuur in gebruik:

Hardwareleverancier
Weerhuisje

Weerstation
Vantage Pro2+ UV

Weercomputer's
alix3d2 & wl330n

Weerprogramma's
Smartbedded

Satelliet NOAA's
WRX137 & KX137

Satelliet Eumetsat
Ayecka SR1 & Triax

Bliksemdetectie
Boltek StormTracker

Webleverancier
F-Service

Weerhuisje

Vantage Pro2+ UV

alix3d2 & wl330n

Smartbedded

WRX137 & KX137

Ayecka SR1 & Triax

Boltek StormTracker

F-Service